Time;durP1;ratioP1;P1;durP2;ratioP2;P2;SDS_P1;SDS_P2;PMS_P1;PMS_P2;Temp;Humidity;BMP_temperature;BMP_pressure;BME280_temperature;BME280_humidity;BME280_pressure;Samples;Min_cycle;Max_cycle;Signal;HPM_P1;HPM_P2
2022/04/08 00:01:17;;;;;;;2.40;0.93;;;;;;;11.14;69.27;95685.80;1744297;82;22407;-56
2022/04/08 00:03:45;;;;;;;0.50;0.50;;;;;;;11.17;69.37;95690.53;1747074;81;20864;-56
2022/04/08 00:06:10;;;;;;;0.70;0.65;;;;;;;11.21;69.25;95670.33;1707790;81;21012;-56
2022/04/08 00:08:36;;;;;;;1.87;0.85;;;;;;;11.26;69.23;95677.65;1753216;81;20980;-56
2022/04/08 00:11:02;;;;;;;1.62;0.88;;;;;;;11.30;69.07;95684.55;1744504;82;21530;-57
2022/04/08 00:13:28;;;;;;;2.17;0.98;;;;;;;11.31;69.04;95683.42;1744263;82;21048;-56
2022/04/08 00:15:54;;;;;;;1.87;0.80;;;;;;;11.30;69.41;95683.20;1744401;82;21262;-57
2022/04/08 00:18:20;;;;;;;1.42;0.95;;;;;;;11.29;69.85;95700.59;1744033;82;20869;-57
2022/04/08 00:20:47;;;;;;;1.35;0.88;;;;;;;11.29;69.89;95696.53;1744346;82;21052;-57
2022/04/08 00:23:13;;;;;;;3.80;0.80;;;;;;;11.30;69.99;95689.97;1744347;82;21330;-56
2022/04/08 00:25:38;;;;;;;2.15;1.00;;;;;;;11.24;71.62;95690.77;1744396;82;20910;-56
2022/04/08 00:28:05;;;;;;;5.25;1.37;;;;;;;11.12;71.86;95691.34;1748878;80;21522;-56
2022/04/08 00:30:31;;;;;;;2.27;1.37;;;;;;;10.96;71.95;95704.20;1760805;81;21000;-56
2022/04/08 00:32:57;;;;;;;2.00;1.37;;;;;;;10.82;72.91;95693.45;1754003;81;20980;-56
2022/04/08 00:35:24;;;;;;;1.52;1.12;;;;;;;10.72;73.06;95700.89;1724363;82;21202;-57
2022/04/08 00:37:50;;;;;;;1.25;0.80;;;;;;;10.64;74.34;95703.70;1745168;80;21131;-56
2022/04/08 00:40:16;;;;;;;2.15;1.40;;;;;;;10.62;74.48;95712.73;1748035;81;20889;-56
2022/04/08 00:42:43;;;;;;;1.87;1.32;;;;;;;10.57;74.84;95705.60;1742919;81;21016;-57
2022/04/08 00:45:10;;;;;;;3.33;1.30;;;;;;;10.56;75.56;95714.85;1731322;82;21075;-56
2022/04/08 00:47:37;;;;;;;1.95;1.20;;;;;;;10.55;75.13;95697.03;1726306;82;21719;-56
2022/04/08 00:50:04;;;;;;;3.62;1.12;;;;;;;10.53;75.46;95717.45;1744450;82;21005;-56
2022/04/08 00:52:32;;;;;;;2.98;1.20;;;;;;;10.53;75.94;95717.45;1744290;82;21623;-56
2022/04/08 00:54:57;;;;;;;2.47;0.93;;;;;;;10.49;76.53;95709.19;1735880;82;20983;-57
2022/04/08 00:57:23;;;;;;;2.47;1.50;;;;;;;10.50;75.95;95722.95;1755823;81;21039;-56
2022/04/08 00:59:50;;;;;;;2.05;1.37;;;;;;;10.45;75.99;95725.89;1744565;81;21079;-56
2022/04/08 01:02:15;;;;;;;2.75;1.20;;;;;;;10.32;77.21;95748.05;1734318;82;21015;-57
2022/04/08 01:04:41;;;;;;;2.60;0.90;;;;;;;10.32;77.21;95748.05;1745799;81;21559;-56
2022/04/08 01:07:07;;;;;;;4.70;2.17;;;;;;;10.26;77.23;95745.91;1761624;81;20916;-56
2022/04/08 01:09:33;;;;;;;1.87;1.12;;;;;;;10.24;76.96;95760.30;1755225;81;21642;-56
2022/04/08 01:11:59;;;;;;;0.93;0.88;;;;;;;10.21;77.18;95777.98;1761922;81;21444;-57
2022/04/08 01:14:25;;;;;;;3.10;1.20;;;;;;;10.18;77.18;95782.71;1744863;80;21009;-56
2022/04/08 01:16:51;;;;;;;4.22;1.07;;;;;;;10.17;77.23;95783.27;1746286;81;21646;-56
2022/04/08 01:19:17;;;;;;;3.35;1.20;;;;;;;10.16;77.81;95787.64;1740963;81;20834;-56
2022/04/08 01:21:43;;;;;;;1.92;1.02;;;;;;;10.14;78.32;95798.80;1753457;81;21405;-56
2022/04/08 01:24:15;;;;;;;1.55;0.95;;;;;;;10.10;77.15;95799.80;1741969;81;21349;-56
2022/04/08 01:26:40;;;;;;;1.80;1.15;;;;;;;10.06;77.50;95809.13;1742900;82;21338;-56
2022/04/08 01:29:06;;;;;;;1.42;0.90;;;;;;;9.95;77.51;95796.33;1743618;82;20971;-56
2022/04/08 01:31:32;;;;;;;3.55;2.08;;;;;;;9.95;77.51;95796.33;1744616;82;21737;-57
2022/04/08 01:33:58;;;;;;;2.08;1.07;;;;;;;9.95;77.70;95812.00;1744365;82;20926;-56
2022/04/08 01:36:23;;;;;;;2.65;0.85;;;;;;;9.90;77.63;95811.62;1741941;82;22322;-56
2022/04/08 01:38:49;;;;;;;3.62;0.90;;;;;;;9.84;77.59;95814.87;1716880;81;21554;-56
2022/04/08 01:41:20;;;;;;;1.90;0.82;;;;;;;9.80;77.75;95817.98;1727002;82;20944;-56
2022/04/08 01:43:46;;;;;;;2.77;1.35;;;;;;;9.75;77.74;95806.80;1728483;82;21011;-56
2022/04/08 01:46:12;;;;;;;2.70;1.30;;;;;;;9.74;77.51;95793.59;1729251;82;20964;-57
2022/04/08 01:48:37;;;;;;;1.32;0.90;;;;;;;9.73;77.93;95792.80;1734061;82;21289;-56
2022/04/08 01:51:04;;;;;;;3.67;1.70;;;;;;;9.70;78.06;95793.46;1744400;82;20916;-56
2022/04/08 01:53:30;;;;;;;3.92;1.90;;;;;;;9.71;78.28;95798.30;1745328;81;20992;-56
2022/04/08 01:55:56;;;;;;;2.00;0.95;;;;;;;9.71;78.98;95802.36;1761856;81;20905;-56
2022/04/08 01:58:21;;;;;;;1.17;0.90;;;;;;;9.70;78.29;95811.04;1747761;81;20893;-56
2022/04/08 02:00:47;;;;;;;1.70;0.90;;;;;;;9.67;78.47;95825.23;1744328;82;21383;-57
2022/04/08 02:03:15;;;;;;;1.05;0.90;;;;;;;9.66;79.11;95821.50;1744117;82;21536;-56
2022/04/08 02:05:41;;;;;;;2.47;1.42;;;;;;;9.66;78.45;95822.29;1744480;82;20989;-56
2022/04/08 02:08:07;;;;;;;1.75;1.10;;;;;;;9.66;78.27;95821.50;1744080;82;20885;-56
2022/04/08 02:10:33;;;;;;;1.62;0.90;;;;;;;9.67;77.94;95806.86;1743763;82;21497;-57
2022/04/08 02:12:59;;;;;;;1.47;0.80;;;;;;;9.59;78.28;95806.57;1729741;82;21477;-56
2022/04/08 02:15:29;;;;;;;1.50;1.07;;;;;;;9.59;78.23;95825.50;1724521;82;21020;-57
2022/04/08 02:17:56;;;;;;;3.30;1.05;;;;;;;9.59;78.23;95825.50;1710031;82;20993;-57
2022/04/08 02:20:22;;;;;;;1.92;1.12;;;;;;;9.54;79.88;95816.21;1758990;81;21025;-57
2022/04/08 02:22:48;;;;;;;1.22;1.00;;;;;;;9.48;80.31;95821.55;1756172;81;21073;-56
2022/04/08 02:25:14;;;;;;;1.77;0.98;;;;;;;9.39;80.81;95823.51;1729769;82;21732;-57
2022/04/08 02:27:40;;;;;;;1.77;1.00;;;;;;;9.34;80.48;95825.06;1728242;80;21016;-57
2022/04/08 02:30:08;;;;;;;4.97;1.98;;;;;;;9.30;79.80;95817.35;1748100;81;20999;-56
2022/04/08 02:32:34;;;;;;;1.52;1.10;;;;;;;9.27;80.18;95841.77;1744727;82;20992;-56
2022/04/08 02:35:00;;;;;;;1.85;1.30;;;;;;;9.22;81.30;95844.64;1756518;81;21043;-57
2022/04/08 02:37:26;;;;;;;3.08;0.93;;;;;;;9.18;80.97;95846.97;1740063;81;20956;-56
2022/04/08 02:39:53;;;;;;;1.60;1.07;;;;;;;9.18;81.23;95848.33;1743724;82;21236;-56
2022/04/08 02:42:19;;;;;;;2.50;1.62;;;;;;;9.18;81.05;95863.98;1743947;82;20952;-57
2022/04/08 02:44:45;;;;;;;2.52;1.10;;;;;;;9.18;80.24;95869.94;1749461;81;21594;-56
2022/04/08 02:47:12;;;;;;;2.10;1.42;;;;;;;9.16;80.50;95859.46;1739715;81;20952;-56
2022/04/08 02:49:38;;;;;;;3.50;0.80;;;;;;;9.14;80.24;95865.72;1753514;81;21123;-56
2022/04/08 02:52:05;;;;;;;1.50;1.00;;;;;;;9.12;79.94;95866.61;1736417;81;20873;-56
2022/04/08 02:54:31;;;;;;;2.58;1.10;;;;;;;9.11;79.61;95861.53;1726548;81;22084;-56
2022/04/08 02:56:57;;;;;;;4.90;1.30;;;;;;;9.09;79.48;95855.11;1728746;82;20857;-57
2022/04/08 02:59:23;;;;;;;3.02;1.25;;;;;;;9.08;79.32;95881.09;1739149;80;21035;-56
2022/04/08 03:01:49;;;;;;;5.17;1.42;;;;;;;9.05;80.31;95890.06;1736024;82;21456;-57
2022/04/08 03:04:15;;;;;;;5.25;1.30;;;;;;;9.03;80.80;95915.26;1750620;81;20995;-56
2022/04/08 03:06:40;;;;;;;3.05;1.50;;;;;;;8.94;69.91;95928.54;1742406;81;21626;-56
2022/04/08 03:09:06;;;;;;;5.05;1.20;;;;;;;8.88;68.75;95938.70;1730727;82;21409;-56
2022/04/08 03:11:33;;;;;;;2.83;1.15;;;;;;;8.75;69.23;95963.42;1744520;82;20882;-57
2022/04/08 03:14:02;;;;;;;2.00;1.05;;;;;;;8.58;68.86;95958.02;1745150;80;21564;-56
2022/04/08 03:16:27;;;;;;;3.27;1.12;;;;;;;8.43;68.59;95945.77;1727284;82;21052;-56
2022/04/08 03:18:53;;;;;;;1.27;0.90;;;;;;;8.34;69.33;95952.23;1731398;82;21008;-57
2022/04/08 03:21:19;;;;;;;3.08;1.17;;;;;;;8.31;68.54;95955.57;1744512;82;20846;-56
2022/04/08 03:23:45;;;;;;;3.58;1.27;;;;;;;8.24;68.90;95961.42;1747106;81;20888;-56
2022/04/08 03:26:11;;;;;;;2.22;1.20;;;;;;;8.18;69.01;95986.95;1750427;81;21486;-56
2022/04/08 03:28:37;;;;;;;3.80;1.30;;;;;;;8.16;69.36;95998.61;1730853;82;21059;-56
2022/04/08 03:31:03;;;;;;;6.20;2.08;;;;;;;8.14;69.51;96000.84;1729724;82;20878;-56
2022/04/08 03:33:29;;;;;;;4.80;1.50;;;;;;;8.11;69.22;96014.92;1745026;81;20862;-56
2022/04/08 03:35:55;;;;;;;5.20;1.15;;;;;;;8.09;68.24;96017.94;1761976;81;22475;-56
2022/04/08 03:38:20;;;;;;;4.05;1.45;;;;;;;8.10;68.58;96016.84;1746401;81;21422;-57
2022/04/08 03:40:48;;;;;;;8.75;1.35;;;;;;;8.09;68.27;96023.89;1742649;82;21649;-56
2022/04/08 03:43:14;;;;;;;3.92;1.12;;;;;;;8.06;68.07;96015.09;1731254;81;21044;-57
2022/04/08 03:45:40;;;;;;;7.75;1.80;;;;;;;8.01;66.77;96021.95;1744136;82;21049;-56
2022/04/08 03:48:09;;;;;;;2.05;1.17;;;;;;;7.99;62.91;96024.17;1737356;81;20853;-56
2022/04/08 03:50:35;;;;;;;3.37;0.90;;;;;;;7.98;63.54;96034.17;1731087;82;21874;-56
2022/04/08 03:53:01;;;;;;;4.45;1.00;;;;;;;7.96;62.41;96043.13;1729218;82;21009;-56
2022/04/08 03:55:27;;;;;;;3.10;1.45;;;;;;;7.95;63.41;96029.94;1744656;82;20993;-56
2022/04/08 03:57:53;;;;;;;6.72;1.30;;;;;;;7.91;63.42;96027.87;1744714;82;20873;-56
2022/04/08 04:00:19;;;;;;;4.17;1.15;;;;;;;7.89;63.12;96031.98;1741975;82;21043;-57
2022/04/08 04:02:45;;;;;;;2.05;1.10;;;;;;;7.87;63.03;96032.86;1744795;80;21860;-57
2022/04/08 04:05:11;;;;;;;4.15;2.12;;;;;;;7.81;62.54;96040.83;1728449;81;20964;-56
2022/04/08 04:07:36;;;;;;;4.12;1.45;;;;;;;7.77;61.91;96035.24;1735820;81;20966;-56
2022/04/08 04:10:03;;;;;;;4.55;1.82;;;;;;;7.80;60.72;96039.24;1735443;81;20886;-56
2022/04/08 04:12:29;;;;;;;3.27;1.47;;;;;;;7.81;61.25;96053.76;1737963;81;21025;-57
2022/04/08 04:14:55;;;;;;;3.58;1.05;;;;;;;7.82;58.56;96057.25;1743173;81;21123;-56
2022/04/08 04:17:22;;;;;;;3.70;1.10;;;;;;;7.83;60.01;96064.23;1747756;81;21312;-57
2022/04/08 04:19:48;;;;;;;3.87;1.65;;;;;;;7.80;60.17;96064.86;1743180;80;21527;-56
2022/04/08 04:22:14;;;;;;;3.65;1.37;;;;;;;7.80;59.49;96067.55;1733108;82;21178;-56
2022/04/08 04:24:40;;;;;;;3.17;1.37;;;;;;;7.79;59.96;96068.11;1739742;82;20949;-56
2022/04/08 04:27:06;;;;;;;6.37;1.35;;;;;;;7.78;57.98;96080.55;1743133;81;21131;-57
2022/04/08 04:29:32;;;;;;;5.17;1.40;;;;;;;7.78;58.97;96088.64;1741085;81;20948;-57
2022/04/08 04:31:59;;;;;;;5.37;2.10;;;;;;;7.78;59.24;96089.44;1742050;81;20905;-55
2022/04/08 04:34:26;;;;;;;8.25;2.70;;;;;;;7.77;58.70;96086.47;1744109;80;21000;-57
2022/04/08 04:36:52;;;;;;;5.37;2.80;;;;;;;7.79;57.94;96084.28;1745159;81;21004;-56
2022/04/08 04:39:18;;;;;;;6.83;1.47;;;;;;;7.80;58.68;96091.27;1742512;81;21704;-56
2022/04/08 04:41:44;;;;;;;6.70;2.05;;;;;;;7.83;58.57;96095.23;1743033;81;20885;-57
2022/04/08 04:44:10;;;;;;;6.72;2.35;;;;;;;7.85;58.46;96103.25;1755543;80;20989;-57
2022/04/08 04:46:36;;;;;;;5.10;2.85;;;;;;;7.85;58.83;96110.00;1755729;80;20881;-56
2022/04/08 04:49:02;;;;;;;10.05;2.52;;;;;;;7.86;58.65;96106.75;1756932;80;21409;-56
2022/04/08 04:51:30;;;;;;;4.30;1.95;;;;;;;7.87;58.46;96109.71;1773190;80;21196;-55
2022/04/08 04:53:57;;;;;;;7.62;1.47;;;;;;;7.92;58.34;96114.41;1761905;80;21097;-56
2022/04/08 04:56:23;;;;;;;5.25;1.65;;;;;;;7.92;57.89;96112.27;1764170;80;21472;-56
2022/04/08 04:58:49;;;;;;;6.50;3.55;;;;;;;7.95;58.33;96118.41;1765814;80;20884;-56
2022/04/08 05:01:15;;;;;;;4.15;2.65;;;;;;;8.00;58.25;96129.05;1765018;80;21010;-56
2022/04/08 05:03:41;;;;;;;5.65;3.85;;;;;;;8.02;57.83;96126.84;1764456;80;21653;-56
2022/04/08 05:06:06;;;;;;;5.37;3.65;;;;;;;8.07;58.21;96135.36;1741066;81;20940;-56
2022/04/08 05:08:32;;;;;;;5.12;3.15;;;;;;;8.12;58.33;96138.73;1727082;81;20983;-56
2022/04/08 05:10:58;;;;;;;5.25;1.98;;;;;;;8.16;57.91;96142.95;1745814;81;20905;-56
2022/04/08 05:13:24;;;;;;;15.78;4.83;;;;;;;8.23;57.55;96135.22;1746354;81;21663;-57
2022/04/08 05:15:50;;;;;;;19.90;5.42;;;;;;;8.27;57.75;96140.22;1753653;81;21700;-57
2022/04/08 05:18:16;;;;;;;9.13;2.65;;;;;;;8.33;57.67;96142.24;1751446;80;20992;-56
2022/04/08 05:20:42;;;;;;;5.55;1.95;;;;;;;8.37;57.41;96154.82;1725327;82;20896;-57
2022/04/08 05:23:08;;;;;;;6.00;1.90;;;;;;;8.43;57.53;96163.59;1731061;81;20884;-56
2022/04/08 05:25:34;;;;;;;7.15;1.90;;;;;;;8.47;57.25;96174.82;1739066;80;21518;-56
2022/04/08 05:28:00;;;;;;;8.00;2.12;;;;;;;8.54;56.85;96175.70;1713390;80;21281;-57
2022/04/08 05:30:26;;;;;;;6.60;1.60;;;;;;;8.57;54.62;96162.16;1750294;80;21135;-56
2022/04/08 05:32:52;;;;;;;4.22;2.30;;;;;;;8.59;55.73;96168.83;1770419;80;21042;-57
2022/04/08 05:35:18;;;;;;;5.97;1.50;;;;;;;8.64;55.74;96170.05;1762494;80;21009;-56
2022/04/08 05:37:46;;;;;;;4.22;2.35;;;;;;;8.66;55.76;96173.23;1772042;80;21067;-56
2022/04/08 05:40:18;;;;;;;4.80;2.00;;;;;;;8.72;55.84;96175.25;1779107;80;21296;-56
2022/04/08 05:42:45;;;;;;;4.75;2.92;;;;;;;8.79;54.94;96180.17;1769307;80;20979;-56
2022/04/08 05:45:11;;;;;;;10.00;2.80;;;;;;;8.98;55.83;96186.93;1721145;81;21002;-57
2022/04/08 05:47:38;;;;;;;7.83;3.67;;;;;;;9.25;55.70;96187.23;1745893;80;21185;-56
2022/04/08 05:50:05;;;;;;;6.70;2.22;;;;;;;9.51;55.57;96197.29;1747568;81;21012;-56
2022/04/08 05:52:31;;;;;;;5.40;2.20;;;;;;;9.70;53.97;96192.36;1748519;81;21057;-57
2022/04/08 05:54:57;;;;;;;7.90;3.35;;;;;;;9.94;54.26;96193.80;1742577;81;21024;-57
2022/04/08 05:57:23;;;;;;;4.47;2.17;;;;;;;10.07;53.09;96190.91;1747415;81;21068;-56
2022/04/08 05:59:49;;;;;;;5.67;2.08;;;;;;;9.88;52.42;96194.51;1757719;79;20936;-55
2022/04/08 06:02:15;;;;;;;3.70;2.30;;;;;;;9.79;52.05;96199.92;1739376;81;20960;-57
2022/04/08 06:04:41;;;;;;;6.30;2.40;;;;;;;9.75;52.70;96204.95;1743819;81;21437;-57
2022/04/08 06:07:07;;;;;;;6.15;2.08;;;;;;;9.71;51.49;96199.92;1758631;81;20932;-57
2022/04/08 06:09:33;;;;;;;3.75;1.20;;;;;;;9.73;51.86;96203.09;1749870;81;20880;-57
2022/04/08 06:11:59;;;;;;;4.62;1.98;;;;;;;9.68;51.35;96209.47;1752878;80;20870;-57
2022/04/08 06:14:26;;;;;;;5.85;1.65;;;;;;;9.71;49.76;96215.59;1738977;81;21015;-56
2022/04/08 06:16:55;;;;;;;6.60;1.42;;;;;;;9.72;50.02;96202.86;1733464;82;21251;-57
2022/04/08 06:19:21;;;;;;;;;;;;;;;9.80;48.62;96205.56;1749455;80;20981;-57
2022/04/08 06:21:47;;;;;;;5.67;1.77;;;;;;;9.85;48.40;96212.18;1746138;81;20220;-57
2022/04/08 06:24:13;;;;;;;4.45;1.22;;;;;;;10.18;49.44;96207.07;1750046;81;21064;-57
2022/04/08 06:26:39;;;;;;;3.42;1.10;;;;;;;10.64;48.74;96204.76;1743303;81;20915;-56
2022/04/08 06:29:05;;;;;;;3.15;1.22;;;;;;;10.96;47.63;96210.94;1734224;81;21655;-57
2022/04/08 06:31:32;;;;;;;7.08;1.10;;;;;;;11.44;46.13;96206.20;1741001;81;20879;-56
2022/04/08 06:33:59;;;;;;;3.35;1.00;;;;;;;11.49;44.55;96225.02;1741817;81;21454;-57
2022/04/08 06:36:26;;;;;;;5.12;1.82;;;;;;;11.24;43.67;96218.05;1743939;81;21122;-57
2022/04/08 06:38:52;;;;;;;1.92;1.05;;;;;;;11.11;42.00;96220.45;1736365;81;21040;-57
2022/04/08 06:41:18;;;;;;;7.00;1.40;;;;;;;11.11;42.23;96205.54;1743732;81;21100;-57
2022/04/08 06:43:44;;;;;;;5.45;1.40;;;;;;;11.12;43.17;96211.75;1741834;81;20901;-57
2022/04/08 06:46:11;;;;;;;5.05;1.50;;;;;;;11.05;42.00;96213.61;1733090;82;21463;-56
2022/04/08 06:48:37;;;;;;;8.13;1.60;;;;;;;11.06;42.82;96231.45;1750625;81;21534;-56
2022/04/08 06:51:06;;;;;;;5.22;2.17;;;;;;;11.30;41.23;96234.94;1740488;81;20869;-57
2022/04/08 06:53:32;;;;;;;6.62;1.42;;;;;;;11.58;42.33;96227.91;1766234;78;21269;-57
2022/04/08 06:56:01;;;;;;;3.40;1.10;;;;;;;12.04;42.41;96252.50;1751726;80;21584;-56
2022/04/08 06:58:30;;;;;;;1.98;0.80;;;;;;;11.99;37.66;96227.72;1763190;80;21418;-56
2022/04/08 07:00:56;;;;;;;6.00;1.30;;;;;;;11.96;37.94;96237.08;1754884;80;21093;-57
2022/04/08 07:03:22;;;;;;;4.10;1.45;;;;;;;11.54;39.55;96265.52;1764604;79;20957;-57
2022/04/08 07:05:49;;;;;;;3.35;1.10;;;;;;;11.67;40.06;96272.61;1749111;80;21282;-57
2022/04/08 07:08:15;;;;;;;2.45;1.27;;;;;;;11.60;38.56;96279.11;1763998;80;21017;-57
2022/04/08 07:10:41;;;;;;;3.62;1.92;;;;;;;11.57;38.91;96271.64;1758445;80;21084;-56
2022/04/08 07:13:07;;;;;;;3.72;1.27;;;;;;;11.79;39.03;96290.34;1786694;79;20978;-56
2022/04/08 07:15:33;;;;;;;3.12;1.00;;;;;;;11.77;38.42;96282.28;1777692;80;21458;-56
2022/04/08 07:17:59;;;;;;;4.95;1.95;;;;;;;11.84;38.38;96283.95;1739679;81;21690;-57
2022/04/08 07:20:25;;;;;;;6.62;1.42;;;;;;;12.19;38.66;96293.99;1748424;80;21018;-57
2022/04/08 07:22:52;;;;;;;4.90;1.02;;;;;;;12.61;39.27;96289.87;1737524;80;20963;-56
2022/04/08 07:25:18;;;;;;;3.05;1.90;;;;;;;12.89;38.55;96299.59;1756749;80;21028;-57
2022/04/08 07:27:50;;;;;;;3.12;1.85;;;;;;;13.12;36.17;96295.34;1744873;81;21083;-57
2022/04/08 07:30:18;;;;;;;2.95;1.40;;;;;;;13.01;37.29;96299.63;1724322;80;21166;-57
2022/04/08 07:32:45;;;;;;;4.75;1.47;;;;;;;13.60;36.02;96306.08;1737984;81;21040;-58
2022/04/08 07:35:12;;;;;;;3.42;1.42;;;;;;;14.04;35.29;96299.45;1734222;81;21025;-57
2022/04/08 07:37:38;;;;;;;3.35;1.30;;;;;;;14.46;34.33;96295.07;1738016;80;20925;-57
2022/04/08 07:40:07;;;;;;;3.60;1.32;;;;;;;14.06;34.74;96303.98;1740004;82;37432;-57
2022/04/08 07:42:33;;;;;;;2.47;1.30;;;;;;;13.57;34.19;96295.06;1736739;80;22727;-57
2022/04/08 07:44:59;;;;;;;5.40;1.67;;;;;;;13.94;34.90;96305.37;1740931;80;21900;-57
2022/04/08 07:47:28;;;;;;;2.95;1.20;;;;;;;13.75;35.55;96304.58;1730676;80;20891;-56
2022/04/08 07:50:05;;;;;;;4.25;1.67;;;;;;;13.39;36.02;96303.45;1732862;81;20981;-57
2022/04/08 07:52:31;;;;;;;6.80;1.30;;;;;;;14.03;34.82;96310.13;1739724;81;21040;-57
2022/04/08 07:54:57;;;;;;;5.67;1.57;;;;;;;14.98;34.00;96313.24;1744487;81;21914;-57
2022/04/08 07:57:23;;;;;;;4.92;1.40;;;;;;;15.54;32.79;96308.43;1739081;80;20865;-57
2022/04/08 07:59:49;;;;;;;8.98;2.10;;;;;;;16.03;32.61;96307.48;1746973;80;21002;-57
2022/04/08 08:02:15;;;;;;;2.20;1.22;;;;;;;15.34;33.14;96303.47;1740202;80;21042;-57
2022/04/08 08:04:41;;;;;;;3.17;1.62;;;;;;;15.38;34.17;96306.27;1740268;80;20969;-57
2022/04/08 08:07:07;;;;;;;2.77;1.00;;;;;;;16.99;33.28;96319.64;1741620;81;21092;-57
2022/04/08 08:09:36;;;;;;;4.40;1.65;;;;;;;16.54;32.57;96314.23;1743594;81;20915;-57
2022/04/08 08:12:03;;;;;;;3.40;1.45;;;;;;;17.08;31.29;96325.67;1744872;80;21057;-57
2022/04/08 08:14:29;;;;;;;4.92;1.82;;;;;;;17.87;28.48;96329.81;1738222;80;20996;-57
2022/04/08 08:16:55;;;;;;;2.95;1.62;;;;;;;18.20;28.55;96329.93;1743372;81;21415;-56
2022/04/08 08:19:22;;;;;;;6.20;2.20;;;;;;;18.78;27.93;96325.41;1761459;80;21056;-57
2022/04/08 08:21:47;;;;;;;3.58;1.92;;;;;;;19.07;26.97;96319.69;1755301;80;21028;-57
2022/04/08 08:24:13;;;;;;;7.75;2.50;;;;;;;18.46;28.22;96327.75;1738496;80;20890;-57
2022/04/08 08:26:39;;;;;;;4.62;0.82;;;;;;;18.68;28.89;96341.17;1762202;80;20947;-57
2022/04/08 08:29:05;;;;;;;5.03;1.98;;;;;;;17.85;27.19;96330.73;1771060;80;21075;-57
2022/04/08 08:31:31;;;;;;;3.77;1.80;;;;;;;17.78;28.22;96343.77;1766898;80;21142;-57
2022/04/08 08:33:57;;;;;;;2.40;1.35;;;;;;;18.22;28.41;96350.12;1765414;80;20837;-57
2022/04/08 08:36:23;;;;;;;3.45;1.57;;;;;;;19.07;27.65;96354.00;1765745;80;20872;-58
2022/04/08 08:38:52;;;;;;;4.78;1.77;;;;;;;18.44;28.77;96355.30;1719612;82;20896;-57
2022/04/08 08:41:18;;;;;;;;;;;;;;;17.55;27.87;96363.48;1766619;80;21043;-57
2022/04/08 08:43:44;;;;;;;44.33;38.35;;;;;;;17.29;27.83;96351.30;1742027;80;21506;-57
2022/04/08 08:46:10;;;;;;;4.20;2.08;;;;;;;19.04;26.25;96350.61;1739043;81;21087;-57
2022/04/08 08:48:38;;;;;;;6.47;2.10;;;;;;;17.67;28.71;96353.13;1717610;80;20917;-57
2022/04/08 08:51:05;;;;;;;4.28;1.70;;;;;;;18.08;28.12;96368.50;1745954;80;21146;-56
2022/04/08 08:53:32;;;;;;;2.35;1.05;;;;;;;17.23;28.43;96360.16;1748269;79;21056;-58
2022/04/08 08:55:58;;;;;;;4.12;1.55;;;;;;;17.57;28.42;96370.17;1752202;80;22006;-57
2022/04/08 08:58:24;;;;;;;7.05;2.60;;;;;;;16.40;29.62;96363.70;1753932;80;20861;-57
2022/04/08 09:00:50;;;;;;;3.85;1.62;;;;;;;16.52;29.57;96371.80;1762243;80;20889;-57
2022/04/08 09:03:16;;;;;;;5.03;2.60;;;;;;;15.66;29.91;96367.08;1713034;81;21151;-57
2022/04/08 09:05:44;;;;;;;2.70;1.30;;;;;;;15.10;29.89;96367.72;1747929;80;20968;-58
2022/04/08 09:08:11;;;;;;;3.83;1.30;;;;;;;17.11;28.96;96378.33;1737477;80;21902;-57
2022/04/08 09:10:43;;;;;;;2.62;1.12;;;;;;;18.37;28.19;96377.92;1750922;80;21110;-57
2022/04/08 09:13:09;;;;;;;9.60;1.90;;;;;;;17.89;27.44;96368.01;1750761;80;21070;-57
2022/04/08 09:15:37;;;;;;;7.15;2.83;;;;;;;17.42;28.42;96382.80;1752077;80;21742;-56
2022/04/08 09:18:10;;;;;;;5.63;1.27;;;;;;;17.72;27.56;96385.73;1751490;80;21043;-57
2022/04/08 09:20:48;;;;;;;4.33;1.57;;;;;;;16.69;29.37;96384.30;1736398;81;21783;-57
2022/04/08 09:23:16;;;;;;;5.33;1.60;;;;;;;16.63;30.05;96387.28;1737046;81;21047;-57
2022/04/08 09:25:42;;;;;;;22.82;10.15;;;;;;;15.94;30.29;96384.73;1745852;81;20981;-57
2022/04/08 09:28:13;;;;;;;2.85;1.30;;;;;;;15.42;31.08;96391.20;1751156;80;20905;-57
2022/04/08 09:30:40;;;;;;;27.98;12.80;;;;;;;14.99;31.69;96392.55;1760802;80;21038;-57
2022/04/08 09:33:18;;;;;;;4.15;1.57;;;;;;;14.79;32.30;96394.34;1760762;80;21315;-57
2022/04/08 09:35:45;;;;;;;2.33;1.30;;;;;;;14.66;32.41;96399.81;1744843;81;21090;-57
2022/04/08 09:38:10;;;;;;;5.20;1.32;;;;;;;14.52;31.98;96395.30;1741755;81;21427;-57
2022/04/08 09:40:39;;;;;;;6.72;1.60;;;;;;;14.09;32.34;96394.53;1746684;81;21010;-56
2022/04/08 09:43:05;;;;;;;4.95;1.45;;;;;;;13.78;32.62;96391.03;1726287;81;21096;-57
2022/04/08 09:45:31;;;;;;;5.25;1.72;;;;;;;13.62;32.76;96393.61;1745979;80;21710;-57
2022/04/08 09:48:01;;;;;;;3.10;1.17;;;;;;;13.55;33.04;96384.64;1741256;81;21460;-57
2022/04/08 09:50:27;;;;;;;4.33;1.70;;;;;;;13.83;33.47;96390.78;1746731;80;20951;-56
2022/04/08 09:52:53;;;;;;;3.58;1.70;;;;;;;14.28;33.63;96383.06;1743606;81;21591;-57
2022/04/08 09:55:21;;;;;;;3.60;1.50;;;;;;;14.60;32.59;96375.28;1727695;81;21071;-57
2022/04/08 09:57:50;;;;;;;5.25;2.08;;;;;;;14.65;32.88;96396.86;1748676;80;21321;-57
2022/04/08 10:00:16;;;;;;;4.12;1.42;;;;;;;14.73;32.20;96390.27;1748109;80;21052;-57
2022/04/08 10:02:46;;;;;;;2.85;1.20;;;;;;;14.63;31.11;96382.00;1749573;80;21071;-57
2022/04/08 10:05:12;;;;;;;4.17;1.20;;;;;;;14.17;31.99;96386.80;1748068;80;20965;-57
2022/04/08 10:07:40;;;;;;;3.62;1.67;;;;;;;14.03;32.36;96394.55;1754307;80;21046;-57
2022/04/08 10:10:31;;;;;;;2.00;0.98;;;;;;;13.98;31.94;96393.41;1739183;80;21104;-57
2022/04/08 10:13:11;;;;;;;6.15;2.05;;;;;;;13.95;32.29;96398.97;1731739;81;21084;-57
2022/04/08 10:15:44;;;;;;;2.27;0.95;;;;;;;14.30;31.87;96369.89;1745046;80;21064;-56
2022/04/08 10:18:10;;;;;;;8.48;1.92;;;;;;;14.44;32.69;96384.49;1754068;81;21012;-57
2022/04/08 10:20:37;;;;;;;2.83;1.27;;;;;;;14.58;32.38;96389.84;1745748;80;20886;-56
2022/04/08 10:23:08;;;;;;;3.98;1.62;;;;;;;14.36;31.27;96395.20;1766842;80;21715;-57
2022/04/08 10:25:42;;;;;;;5.37;1.77;;;;;;;14.26;31.87;96378.51;1750878;81;21095;-56
2022/04/08 10:28:11;;;;;;;3.58;1.02;;;;;;;14.32;31.21;96383.39;1737100;81;21055;-57
2022/04/08 10:30:46;;;;;;;5.15;1.35;;;;;;;14.28;31.88;96386.59;1743632;81;21053;-57
2022/04/08 10:33:13;;;;;;;3.50;1.25;;;;;;;14.40;32.08;96385.19;1742107;81;21028;-57
2022/04/08 10:35:55;;;;;;;11.18;7.12;;;;;;;14.61;31.85;96400.07;1736439;81;21434;-57
2022/04/08 10:38:21;;;;;;;3.52;1.35;;;;;;;14.66;31.44;96393.00;1730599;82;21049;-56
2022/04/08 10:40:58;;;;;;;2.27;1.00;;;;;;;14.81;31.32;96387.39;1745543;81;20875;-57
2022/04/08 10:43:24;;;;;;;5.03;1.65;;;;;;;14.85;31.16;96391.00;1746344;81;20976;-57
2022/04/08 10:45:58;;;;;;;3.80;1.40;;;;;;;14.84;31.41;96403.63;1748201;81;21001;-57
2022/04/08 10:48:31;;;;;;;5.00;0.98;;;;;;;14.79;30.98;96395.70;1747077;80;21315;-57
2022/04/08 10:51:12;;;;;;;5.42;0.98;;;;;;;14.52;29.79;96376.78;1755103;81;21026;-57
2022/04/08 10:53:41;;;;;;;3.40;0.90;;;;;;;14.03;30.50;96417.13;1750393;80;21485;-56
2022/04/08 10:56:13;;;;;;;3.50;0.95;;;;;;;14.06;31.11;96404.75;1748343;81;21149;-57
2022/04/08 10:58:49;;;;;;;1.85;0.85;;;;;;;14.21;31.64;96410.09;1744688;80;21012;-57
2022/04/08 11:01:18;;;;;;;3.58;1.20;;;;;;;14.31;31.61;96405.53;1746750;81;21174;-56
2022/04/08 11:03:48;;;;;;;5.45;1.17;;;;;;;14.37;31.40;96410.41;1748299;79;21048;-57
2022/04/08 11:06:15;;;;;;;4.58;1.10;;;;;;;14.49;31.51;96415.64;1749075;81;21441;-56
2022/04/08 11:08:41;;;;;;;1.47;0.80;;;;;;;14.54;30.98;96409.97;1742077;81;21000;-57
2022/04/08 11:11:07;;;;;;;2.42;1.17;;;;;;;14.40;29.31;96406.20;1743588;81;22059;-57
2022/04/08 11:13:33;;;;;;;12.45;1.65;;;;;;;14.34;29.94;96408.92;1755993;80;21203;-57
2022/04/08 11:15:59;;;;;;;5.28;2.33;;;;;;;14.60;28.36;96406.63;1750521;81;20835;-57
2022/04/08 11:18:25;;;;;;;4.92;2.87;;;;;;;14.23;29.36;96388.73;1769049;78;20993;-56
2022/04/08 11:20:51;;;;;;;4.03;1.30;;;;;;;14.24;29.67;96416.20;1767468;80;20830;-56
2022/04/08 11:23:35;;;;;;;4.17;2.20;;;;;;;14.06;30.48;96413.71;1761811;80;21622;-56
2022/04/08 11:26:00;;;;;;;4.70;1.77;;;;;;;14.32;30.73;96428.34;1754490;80;21204;-56
2022/04/08 11:28:26;;;;;;;3.37;1.30;;;;;;;14.46;29.95;96414.41;1761554;80;20862;-57
2022/04/08 11:30:57;;;;;;;2.27;1.10;;;;;;;14.64;29.63;96423.11;1737742;81;20845;-57
2022/04/08 11:33:23;;;;;;;4.22;2.10;;;;;;;14.65;29.97;96427.42;1727009;80;21052;-57
2022/04/08 11:35:57;;;;;;;1.95;0.98;;;;;;;14.57;29.33;96425.62;1740662;81;21464;-57